sensor_id;sensor_type;location;lat;lon;timestamp;temperature;humidity
2435;DHT22;1228;51.022;6.764;2023-04-03T00:01:28;2.10;99.90
2435;DHT22;1228;51.022;6.764;2023-04-03T00:03:54;2.00;99.90
2435;DHT22;1228;51.022;6.764;2023-04-03T00:06:21;1.90;99.90
2435;DHT22;1228;51.022;6.764;2023-04-03T00:08:46;1.80;99.90
2435;DHT22;1228;51.022;6.764;2023-04-03T00:11:12;1.70;99.90
2435;DHT22;1228;51.022;6.764;2023-04-03T00:13:38;1.60;99.90
2435;DHT22;1228;51.022;6.764;2023-04-03T00:16:05;1.50;99.90
2435;DHT22;1228;51.022;6.764;2023-04-03T00:18:31;1.40;99.90
2435;DHT22;1228;51.022;6.764;2023-04-03T00:20:57;1.30;99.90
2435;DHT22;1228;51.022;6.764;2023-04-03T00:23:23;1.30;99.90
2435;DHT22;1228;51.022;6.764;2023-04-03T00:25:49;1.20;99.90
2435;DHT22;1228;51.022;6.764;2023-04-03T00:28:15;1.10;99.90
2435;DHT22;1228;51.022;6.764;2023-04-03T00:30:41;1.10;99.90
2435;DHT22;1228;51.022;6.764;2023-04-03T00:33:07;1.00;99.90
2435;DHT22;1228;51.022;6.764;2023-04-03T00:35:34;1.00;99.90
2435;DHT22;1228;51.022;6.764;2023-04-03T00:37:59;1.00;99.90
2435;DHT22;1228;51.022;6.764;2023-04-03T00:40:26;0.90;99.90
2435;DHT22;1228;51.022;6.764;2023-04-03T00:42:59;0.80;99.90
2435;DHT22;1228;51.022;6.764;2023-04-03T00:45:29;0.80;99.90
2435;DHT22;1228;51.022;6.764;2023-04-03T00:47:55;0.70;99.90
2435;DHT22;1228;51.022;6.764;2023-04-03T00:50:22;0.70;99.90
2435;DHT22;1228;51.022;6.764;2023-04-03T00:52:48;0.60;99.90
2435;DHT22;1228;51.022;6.764;2023-04-03T00:55:15;0.60;99.90
2435;DHT22;1228;51.022;6.764;2023-04-03T00:57:41;0.60;99.90
2435;DHT22;1228;51.022;6.764;2023-04-03T01:00:12;0.60;99.90
2435;DHT22;1228;51.022;6.764;2023-04-03T01:02:38;0.60;99.90
2435;DHT22;1228;51.022;6.764;2023-04-03T01:05:06;0.50;99.90
2435;DHT22;1228;51.022;6.764;2023-04-03T01:07:32;0.50;99.90
2435;DHT22;1228;51.022;6.764;2023-04-03T01:10:02;0.50;99.90
2435;DHT22;1228;51.022;6.764;2023-04-03T01:12:31;0.50;99.90
2435;DHT22;1228;51.022;6.764;2023-04-03T01:15:16;0.50;99.90
2435;DHT22;1228;51.022;6.764;2023-04-03T01:17:54;0.50;99.90
2435;DHT22;1228;51.022;6.764;2023-04-03T01:25:45;0.30;99.90
2435;DHT22;1228;51.022;6.764;2023-04-03T01:28:15;0.30;99.90
2435;DHT22;1228;51.022;6.764;2023-04-03T01:30:47;0.30;99.90
2435;DHT22;1228;51.022;6.764;2023-04-03T01:33:14;0.30;99.90
2435;DHT22;1228;51.022;6.764;2023-04-03T01:35:39;0.30;99.90
2435;DHT22;1228;51.022;6.764;2023-04-03T01:38:05;0.30;99.90
2435;DHT22;1228;51.022;6.764;2023-04-03T01:40:31;0.20;99.90
2435;DHT22;1228;51.022;6.764;2023-04-03T01:42:57;0.20;99.90
2435;DHT22;1228;51.022;6.764;2023-04-03T01:45:22;0.20;99.90
2435;DHT22;1228;51.022;6.764;2023-04-03T01:47:48;0.20;99.90
2435;DHT22;1228;51.022;6.764;2023-04-03T01:50:14;0.20;99.90
2435;DHT22;1228;51.022;6.764;2023-04-03T01:52:39;0.20;99.90
2435;DHT22;1228;51.022;6.764;2023-04-03T01:55:05;0.20;99.90
2435;DHT22;1228;51.022;6.764;2023-04-03T01:57:31;0.20;99.90
2435;DHT22;1228;51.022;6.764;2023-04-03T01:59:57;0.20;99.90
2435;DHT22;1228;51.022;6.764;2023-04-03T02:02:22;0.20;99.90
2435;DHT22;1228;51.022;6.764;2023-04-03T02:04:48;0.20;99.90
2435;DHT22;1228;51.022;6.764;2023-04-03T02:07:13;0.10;99.90
2435;DHT22;1228;51.022;6.764;2023-04-03T02:09:39;0.20;99.90
2435;DHT22;1228;51.022;6.764;2023-04-03T02:12:05;0.20;99.90
2435;DHT22;1228;51.022;6.764;2023-04-03T02:14:30;0.20;99.90
2435;DHT22;1228;51.022;6.764;2023-04-03T02:16:56;0.20;99.90
2435;DHT22;1228;51.022;6.764;2023-04-03T02:19:21;0.20;99.90
2435;DHT22;1228;51.022;6.764;2023-04-03T02:21:47;0.20;99.90
2435;DHT22;1228;51.022;6.764;2023-04-03T02:24:13;0.20;99.90
2435;DHT22;1228;51.022;6.764;2023-04-03T02:26:38;0.20;99.90
2435;DHT22;1228;51.022;6.764;2023-04-03T02:29:04;0.20;99.90
2435;DHT22;1228;51.022;6.764;2023-04-03T02:31:29;0.20;99.90
2435;DHT22;1228;51.022;6.764;2023-04-03T02:33:55;0.20;99.90
2435;DHT22;1228;51.022;6.764;2023-04-03T02:36:21;0.20;99.90
2435;DHT22;1228;51.022;6.764;2023-04-03T02:38:46;0.20;99.90
2435;DHT22;1228;51.022;6.764;2023-04-03T02:41:12;0.20;99.90
2435;DHT22;1228;51.022;6.764;2023-04-03T02:43:38;0.20;99.90
2435;DHT22;1228;51.022;6.764;2023-04-03T02:46:04;0.20;99.90
2435;DHT22;1228;51.022;6.764;2023-04-03T02:48:31;0.30;99.90
2435;DHT22;1228;51.022;6.764;2023-04-03T02:50:56;0.30;99.90
2435;DHT22;1228;51.022;6.764;2023-04-03T02:53:22;0.30;99.90
2435;DHT22;1228;51.022;6.764;2023-04-03T02:55:48;0.30;99.90
2435;DHT22;1228;51.022;6.764;2023-04-03T02:58:14;0.30;99.90
2435;DHT22;1228;51.022;6.764;2023-04-03T03:00:40;0.30;99.90
2435;DHT22;1228;51.022;6.764;2023-04-03T03:03:06;0.30;99.90
2435;DHT22;1228;51.022;6.764;2023-04-03T03:05:31;0.30;99.90
2435;DHT22;1228;51.022;6.764;2023-04-03T03:07:57;0.20;99.90
2435;DHT22;1228;51.022;6.764;2023-04-03T03:10:23;0.20;99.90
2435;DHT22;1228;51.022;6.764;2023-04-03T03:12:49;0.20;99.90
2435;DHT22;1228;51.022;6.764;2023-04-03T03:15:15;0.20;99.90
2435;DHT22;1228;51.022;6.764;2023-04-03T03:17:42;0.20;99.90
2435;DHT22;1228;51.022;6.764;2023-04-03T03:20:08;0.20;99.90
2435;DHT22;1228;51.022;6.764;2023-04-03T03:22:35;0.20;99.90
2435;DHT22;1228;51.022;6.764;2023-04-03T03:25:01;0.20;99.90
2435;DHT22;1228;51.022;6.764;2023-04-03T03:27:27;0.10;99.90
2435;DHT22;1228;51.022;6.764;2023-04-03T03:29:53;0.10;99.90
2435;DHT22;1228;51.022;6.764;2023-04-03T03:32:18;0.10;99.90
2435;DHT22;1228;51.022;6.764;2023-04-03T03:34:44;0.10;99.90
2435;DHT22;1228;51.022;6.764;2023-04-03T03:37:10;0.10;99.90
2435;DHT22;1228;51.022;6.764;2023-04-03T03:39:36;0.10;99.90
2435;DHT22;1228;51.022;6.764;2023-04-03T03:42:01;0.10;99.90
2435;DHT22;1228;51.022;6.764;2023-04-03T03:44:27;0.00;99.90
2435;DHT22;1228;51.022;6.764;2023-04-03T03:46:54;0.00;99.90
2435;DHT22;1228;51.022;6.764;2023-04-03T03:49:20;0.00;99.90
2435;DHT22;1228;51.022;6.764;2023-04-03T03:51:46;0.00;99.90
2435;DHT22;1228;51.022;6.764;2023-04-03T03:54:12;0.00;99.90
2435;DHT22;1228;51.022;6.764;2023-04-03T03:56:38;0.00;99.90
2435;DHT22;1228;51.022;6.764;2023-04-03T03:59:04;-0.10;99.90
2435;DHT22;1228;51.022;6.764;2023-04-03T04:01:30;-0.10;99.90
2435;DHT22;1228;51.022;6.764;2023-04-03T04:03:55;-0.10;99.90
2435;DHT22;1228;51.022;6.764;2023-04-03T04:06:21;-0.10;99.90
2435;DHT22;1228;51.022;6.764;2023-04-03T04:08:47;-0.10;99.90
2435;DHT22;1228;51.022;6.764;2023-04-03T04:11:12;-0.10;99.90
2435;DHT22;1228;51.022;6.764;2023-04-03T04:13:38;-0.10;99.90
2435;DHT22;1228;51.022;6.764;2023-04-03T04:16:04;0.00;99.90
2435;DHT22;1228;51.022;6.764;2023-04-03T04:18:30;0.10;99.90
2435;DHT22;1228;51.022;6.764;2023-04-03T04:20:56;0.10;99.90
2435;DHT22;1228;51.022;6.764;2023-04-03T04:23:21;0.10;99.90
2435;DHT22;1228;51.022;6.764;2023-04-03T04:25:48;0.10;99.90
2435;DHT22;1228;51.022;6.764;2023-04-03T04:28:14;0.00;99.90
2435;DHT22;1228;51.022;6.764;2023-04-03T04:30:40;0.10;99.90
2435;DHT22;1228;51.022;6.764;2023-04-03T04:33:06;0.10;99.90
2435;DHT22;1228;51.022;6.764;2023-04-03T04:35:32;0.10;99.90
2435;DHT22;1228;51.022;6.764;2023-04-03T04:37:57;0.10;99.90
2435;DHT22;1228;51.022;6.764;2023-04-03T04:40:23;0.10;99.90
2435;DHT22;1228;51.022;6.764;2023-04-03T04:42:49;0.00;99.90
2435;DHT22;1228;51.022;6.764;2023-04-03T04:45:14;0.00;99.90
2435;DHT22;1228;51.022;6.764;2023-04-03T04:47:40;-0.10;99.90
2435;DHT22;1228;51.022;6.764;2023-04-03T04:50:06;0.00;99.90
2435;DHT22;1228;51.022;6.764;2023-04-03T04:52:32;-0.10;99.90
2435;DHT22;1228;51.022;6.764;2023-04-03T04:54:58;-0.10;99.90
2435;DHT22;1228;51.022;6.764;2023-04-03T04:57:23;-0.10;99.90
2435;DHT22;1228;51.022;6.764;2023-04-03T04:59:49;-0.10;99.90
2435;DHT22;1228;51.022;6.764;2023-04-03T05:02:14;-0.10;99.90
2435;DHT22;1228;51.022;6.764;2023-04-03T05:04:40;-0.20;99.90
2435;DHT22;1228;51.022;6.764;2023-04-03T05:07:06;-0.20;99.90
2435;DHT22;1228;51.022;6.764;2023-04-03T05:09:31;-0.20;99.90
2435;DHT22;1228;51.022;6.764;2023-04-03T05:11:57;-0.20;99.90
2435;DHT22;1228;51.022;6.764;2023-04-03T05:14:23;-0.20;99.90
2435;DHT22;1228;51.022;6.764;2023-04-03T05:16:48;-0.20;99.90
2435;DHT22;1228;51.022;6.764;2023-04-03T05:19:18;-0.20;99.90
2435;DHT22;1228;51.022;6.764;2023-04-03T05:21:43;-0.20;99.90
2435;DHT22;1228;51.022;6.764;2023-04-03T05:24:09;-0.20;99.90
2435;DHT22;1228;51.022;6.764;2023-04-03T05:26:35;-0.20;99.90
2435;DHT22;1228;51.022;6.764;2023-04-03T05:29:01;-0.20;99.90
2435;DHT22;1228;51.022;6.764;2023-04-03T05:31:26;-0.20;99.90
2435;DHT22;1228;51.022;6.764;2023-04-03T05:33:54;-0.20;99.90
2435;DHT22;1228;51.022;6.764;2023-04-03T05:36:20;-0.20;99.90
2435;DHT22;1228;51.022;6.764;2023-04-03T05:38:46;-0.10;99.90
2435;DHT22;1228;51.022;6.764;2023-04-03T05:41:13;0.00;99.90
2435;DHT22;1228;51.022;6.764;2023-04-03T05:43:38;0.10;99.90
2435;DHT22;1228;51.022;6.764;2023-04-03T05:46:10;0.20;99.90
2435;DHT22;1228;51.022;6.764;2023-04-03T05:48:36;0.20;99.90
2435;DHT22;1228;51.022;6.764;2023-04-03T05:51:02;0.30;99.90
2435;DHT22;1228;51.022;6.764;2023-04-03T05:53:29;0.50;99.90
2435;DHT22;1228;51.022;6.764;2023-04-03T05:55:57;0.60;99.90
2435;DHT22;1228;51.022;6.764;2023-04-03T05:58:23;0.70;99.90
2435;DHT22;1228;51.022;6.764;2023-04-03T06:00:48;0.70;99.90
2435;DHT22;1228;51.022;6.764;2023-04-03T06:03:14;0.90;99.90
2435;DHT22;1228;51.022;6.764;2023-04-03T06:05:40;0.90;99.90
2435;DHT22;1228;51.022;6.764;2023-04-03T06:08:07;1.00;99.90
2435;DHT22;1228;51.022;6.764;2023-04-03T06:10:34;1.10;99.90
2435;DHT22;1228;51.022;6.764;2023-04-03T06:13:01;1.20;99.90
2435;DHT22;1228;51.022;6.764;2023-04-03T06:15:26;1.20;99.90
2435;DHT22;1228;51.022;6.764;2023-04-03T06:17:52;1.30;99.90
2435;DHT22;1228;51.022;6.764;2023-04-03T06:20:18;1.40;99.90
2435;DHT22;1228;51.022;6.764;2023-04-03T06:22:43;1.50;99.90
2435;DHT22;1228;51.022;6.764;2023-04-03T06:25:09;1.60;99.90
2435;DHT22;1228;51.022;6.764;2023-04-03T06:27:35;1.80;99.90
2435;DHT22;1228;51.022;6.764;2023-04-03T06:30:01;2.10;99.90
2435;DHT22;1228;51.022;6.764;2023-04-03T06:32:26;2.60;99.90
2435;DHT22;1228;51.022;6.764;2023-04-03T06:34:52;3.00;99.90
2435;DHT22;1228;51.022;6.764;2023-04-03T06:37:20;3.50;99.90
2435;DHT22;1228;51.022;6.764;2023-04-03T06:39:47;3.90;99.90
2435;DHT22;1228;51.022;6.764;2023-04-03T06:42:13;4.20;99.90
2435;DHT22;1228;51.022;6.764;2023-04-03T06:44:39;4.40;99.90
2435;DHT22;1228;51.022;6.764;2023-04-03T06:47:05;4.70;99.90
2435;DHT22;1228;51.022;6.764;2023-04-03T06:49:30;4.90;99.90
2435;DHT22;1228;51.022;6.764;2023-04-03T06:51:56;5.20;99.90
2435;DHT22;1228;51.022;6.764;2023-04-03T06:54:22;5.50;99.90
2435;DHT22;1228;51.022;6.764;2023-04-03T06:56:48;5.60;99.90
2435;DHT22;1228;51.022;6.764;2023-04-03T06:59:14;5.80;99.90
2435;DHT22;1228;51.022;6.764;2023-04-03T07:01:40;6.00;99.90
2435;DHT22;1228;51.022;6.764;2023-04-03T07:04:06;6.30;99.90
2435;DHT22;1228;51.022;6.764;2023-04-03T07:06:33;6.70;99.90
2435;DHT22;1228;51.022;6.764;2023-04-03T07:09:00;6.70;99.90
2435;DHT22;1228;51.022;6.764;2023-04-03T07:11:26;6.80;99.90
2435;DHT22;1228;51.022;6.764;2023-04-03T07:13:52;7.00;99.90
2435;DHT22;1228;51.022;6.764;2023-04-03T07:16:18;7.00;99.90
2435;DHT22;1228;51.022;6.764;2023-04-03T07:18:44;7.10;99.90
2435;DHT22;1228;51.022;6.764;2023-04-03T07:21:10;7.10;99.90
2435;DHT22;1228;51.022;6.764;2023-04-03T07:23:37;7.30;99.90
2435;DHT22;1228;51.022;6.764;2023-04-03T07:26:02;7.30;99.90
2435;DHT22;1228;51.022;6.764;2023-04-03T07:28:28;7.30;99.90
2435;DHT22;1228;51.022;6.764;2023-04-03T07:31:01;7.30;99.90
2435;DHT22;1228;51.022;6.764;2023-04-03T07:33:27;7.30;99.90
2435;DHT22;1228;51.022;6.764;2023-04-03T07:35:53;7.50;99.90
2435;DHT22;1228;51.022;6.764;2023-04-03T07:38:19;7.40;99.90
2435;DHT22;1228;51.022;6.764;2023-04-03T07:40:47;7.20;99.90
2435;DHT22;1228;51.022;6.764;2023-04-03T07:43:13;7.30;99.90
2435;DHT22;1228;51.022;6.764;2023-04-03T07:45:38;7.60;99.90
2435;DHT22;1228;51.022;6.764;2023-04-03T07:48:04;7.70;99.90
2435;DHT22;1228;51.022;6.764;2023-04-03T07:50:30;7.60;99.90
2435;DHT22;1228;51.022;6.764;2023-04-03T07:52:57;7.50;99.90
2435;DHT22;1228;51.022;6.764;2023-04-03T07:55:23;7.60;99.90
2435;DHT22;1228;51.022;6.764;2023-04-03T07:57:49;7.80;99.90
2435;DHT22;1228;51.022;6.764;2023-04-03T08:00:15;7.60;99.90
2435;DHT22;1228;51.022;6.764;2023-04-03T08:02:43;7.70;99.90
2435;DHT22;1228;51.022;6.764;2023-04-03T08:05:10;7.90;99.90
2435;DHT22;1228;51.022;6.764;2023-04-03T08:07:37;8.10;99.90
2435;DHT22;1228;51.022;6.764;2023-04-03T08:10:03;8.40;99.90
2435;DHT22;1228;51.022;6.764;2023-04-03T08:12:29;8.40;99.90
2435;DHT22;1228;51.022;6.764;2023-04-03T08:14:55;8.30;99.90
2435;DHT22;1228;51.022;6.764;2023-04-03T08:17:21;8.40;99.90
2435;DHT22;1228;51.022;6.764;2023-04-03T08:19:47;8.70;99.90
2435;DHT22;1228;51.022;6.764;2023-04-03T08:22:12;9.20;99.90
2435;DHT22;1228;51.022;6.764;2023-04-03T08:24:38;9.30;99.90
2435;DHT22;1228;51.022;6.764;2023-04-03T08:27:03;9.20;99.90
2435;DHT22;1228;51.022;6.764;2023-04-03T08:29:29;9.40;99.90
2435;DHT22;1228;51.022;6.764;2023-04-03T08:31:55;9.70;99.90
2435;DHT22;1228;51.022;6.764;2023-04-03T08:34:20;9.90;99.90
2435;DHT22;1228;51.022;6.764;2023-04-03T08:36:46;10.20;99.90
2435;DHT22;1228;51.022;6.764;2023-04-03T08:39:12;10.30;99.90
2435;DHT22;1228;51.022;6.764;2023-04-03T08:41:43;10.10;99.90
2435;DHT22;1228;51.022;6.764;2023-04-03T08:44:17;10.40;99.90
2435;DHT22;1228;51.022;6.764;2023-04-03T08:49:59;10.30;99.90
2435;DHT22;1228;51.022;6.764;2023-04-03T08:55:48;10.10;99.90
2435;DHT22;1228;51.022;6.764;2023-04-03T08:58:48;10.20;99.90
2435;DHT22;1228;51.022;6.764;2023-04-03T09:01:20;10.40;99.90
2435;DHT22;1228;51.022;6.764;2023-04-03T09:03:47;10.60;99.90
2435;DHT22;1228;51.022;6.764;2023-04-03T09:06:21;10.80;99.90
2435;DHT22;1228;51.022;6.764;2023-04-03T09:13:59;11.10;98.70
2435;DHT22;1228;51.022;6.764;2023-04-03T09:16:39;11.10;98.60
2435;DHT22;1228;51.022;6.764;2023-04-03T09:21:57;10.90;96.90
2435;DHT22;1228;51.022;6.764;2023-04-03T09:24:24;11.00;97.80
2435;DHT22;1228;51.022;6.764;2023-04-03T09:27:07;11.10;97.90
2435;DHT22;1228;51.022;6.764;2023-04-03T09:29:39;11.10;97.40
2435;DHT22;1228;51.022;6.764;2023-04-03T09:32:29;11.30;96.00
2435;DHT22;1228;51.022;6.764;2023-04-03T09:35:06;11.60;96.30
2435;DHT22;1228;51.022;6.764;2023-04-03T09:37:46;11.60;98.40
2435;DHT22;1228;51.022;6.764;2023-04-03T09:40:41;11.80;97.40
2435;DHT22;1228;51.022;6.764;2023-04-03T09:43:30;11.80;97.90
2435;DHT22;1228;51.022;6.764;2023-04-03T09:46:16;11.30;96.90
2435;DHT22;1228;51.022;6.764;2023-04-03T09:48:50;11.30;98.10
2435;DHT22;1228;51.022;6.764;2023-04-03T09:51:16;11.10;96.50
2435;DHT22;1228;51.022;6.764;2023-04-03T09:53:44;11.10;98.50
2435;DHT22;1228;51.022;6.764;2023-04-03T10:04:15;12.10;93.20
2435;DHT22;1228;51.022;6.764;2023-04-03T10:06:43;12.30;93.60
2435;DHT22;1228;51.022;6.764;2023-04-03T10:09:29;12.10;91.70
2435;DHT22;1228;51.022;6.764;2023-04-03T10:12:03;12.00;94.70
2435;DHT22;1228;51.022;6.764;2023-04-03T10:14:37;12.10;95.60
2435;DHT22;1228;51.022;6.764;2023-04-03T10:31:22;13.50;92.70
2435;DHT22;1228;51.022;6.764;2023-04-03T10:34:06;13.50;91.20
2435;DHT22;1228;51.022;6.764;2023-04-03T10:42:43;12.50;92.30
2435;DHT22;1228;51.022;6.764;2023-04-03T10:45:26;12.70;92.80
2435;DHT22;1228;51.022;6.764;2023-04-03T10:55:43;12.90;92.90
2435;DHT22;1228;51.022;6.764;2023-04-03T10:58:48;12.90;93.10
2435;DHT22;1228;51.022;6.764;2023-04-03T11:01:22;12.60;92.50
2435;DHT22;1228;51.022;6.764;2023-04-03T11:03:57;12.40;90.20
2435;DHT22;1228;51.022;6.764;2023-04-03T11:06:26;12.30;88.80
2435;DHT22;1228;51.022;6.764;2023-04-03T11:09:01;12.20;90.00
2435;DHT22;1228;51.022;6.764;2023-04-03T11:11:40;12.30;90.70
2435;DHT22;1228;51.022;6.764;2023-04-03T11:16:45;12.30;89.30
2435;DHT22;1228;51.022;6.764;2023-04-03T11:19:21;12.30;90.70
2435;DHT22;1228;51.022;6.764;2023-04-03T11:22:00;12.20;90.60
2435;DHT22;1228;51.022;6.764;2023-04-03T11:24:29;12.40;90.90
2435;DHT22;1228;51.022;6.764;2023-04-03T11:26:59;12.10;88.10
2435;DHT22;1228;51.022;6.764;2023-04-03T11:29:31;11.90;91.10
2435;DHT22;1228;51.022;6.764;2023-04-03T11:34:37;11.90;84.50
2435;DHT22;1228;51.022;6.764;2023-04-03T11:39:54;12.40;91.70
2435;DHT22;1228;51.022;6.764;2023-04-03T11:47:49;12.10;84.60
2435;DHT22;1228;51.022;6.764;2023-04-03T11:53:32;12.50;89.30
2435;DHT22;1228;51.022;6.764;2023-04-03T11:56:04;12.40;84.60
2435;DHT22;1228;51.022;6.764;2023-04-03T11:58:34;12.60;88.00
2435;DHT22;1228;51.022;6.764;2023-04-03T12:01:11;13.10;90.00
2435;DHT22;1228;51.022;6.764;2023-04-03T12:04:08;13.20;81.20
2435;DHT22;1228;51.022;6.764;2023-04-03T12:09:01;13.40;82.90
2435;DHT22;1228;51.022;6.764;2023-04-03T12:11:32;13.40;79.60
2435;DHT22;1228;51.022;6.764;2023-04-03T12:16:30;13.50;75.70
2435;DHT22;1228;51.022;6.764;2023-04-03T12:19:00;13.30;72.50
2435;DHT22;1228;51.022;6.764;2023-04-03T12:45:51;12.90;67.80
2435;DHT22;1228;51.022;6.764;2023-04-03T12:48:22;13.00;65.30
2435;DHT22;1228;51.022;6.764;2023-04-03T12:50:50;13.10;69.40
2435;DHT22;1228;51.022;6.764;2023-04-03T12:53:42;13.40;69.60
2435;DHT22;1228;51.022;6.764;2023-04-03T12:58:47;13.20;67.70
2435;DHT22;1228;51.022;6.764;2023-04-03T13:01:15;13.40;70.70
2435;DHT22;1228;51.022;6.764;2023-04-03T13:03:45;13.60;72.80
2435;DHT22;1228;51.022;6.764;2023-04-03T13:06:22;13.20;60.40
2435;DHT22;1228;51.022;6.764;2023-04-03T13:08:52;13.00;69.10
2435;DHT22;1228;51.022;6.764;2023-04-03T13:11:20;13.10;67.80
2435;DHT22;1228;51.022;6.764;2023-04-03T13:13:57;13.30;70.20
2435;DHT22;1228;51.022;6.764;2023-04-03T13:16:23;13.50;71.20
2435;DHT22;1228;51.022;6.764;2023-04-03T13:18:54;13.70;65.80
2435;DHT22;1228;51.022;6.764;2023-04-03T13:21:26;13.40;65.90
2435;DHT22;1228;51.022;6.764;2023-04-03T13:23:58;13.50;67.70
2435;DHT22;1228;51.022;6.764;2023-04-03T13:26:28;13.80;74.00
2435;DHT22;1228;51.022;6.764;2023-04-03T13:28:59;13.70;66.30
2435;DHT22;1228;51.022;6.764;2023-04-03T13:31:29;13.50;65.00
2435;DHT22;1228;51.022;6.764;2023-04-03T13:34:13;13.20;71.80
2435;DHT22;1228;51.022;6.764;2023-04-03T13:36:53;13.20;69.30
2435;DHT22;1228;51.022;6.764;2023-04-03T13:41:55;13.30;71.60
2435;DHT22;1228;51.022;6.764;2023-04-03T13:46:48;13.10;71.00
2435;DHT22;1228;51.022;6.764;2023-04-03T13:49:35;12.60;71.80
2435;DHT22;1228;51.022;6.764;2023-04-03T13:55:03;12.70;71.60
2435;DHT22;1228;51.022;6.764;2023-04-03T13:57:35;12.50;69.50
2435;DHT22;1228;51.022;6.764;2023-04-03T14:00:20;12.60;73.50
2435;DHT22;1228;51.022;6.764;2023-04-03T14:02:47;12.90;75.80
2435;DHT22;1228;51.022;6.764;2023-04-03T14:05:13;12.70;69.00
2435;DHT22;1228;51.022;6.764;2023-04-03T14:07:39;12.90;73.40
2435;DHT22;1228;51.022;6.764;2023-04-03T14:10:05;13.10;71.40
2435;DHT22;1228;51.022;6.764;2023-04-03T14:12:32;13.20;71.30
2435;DHT22;1228;51.022;6.764;2023-04-03T14:15:00;13.20;72.70
2435;DHT22;1228;51.022;6.764;2023-04-03T14:17:27;13.20;70.10
2435;DHT22;1228;51.022;6.764;2023-04-03T14:19:54;13.20;76.50
2435;DHT22;1228;51.022;6.764;2023-04-03T14:22:26;13.40;71.80
2435;DHT22;1228;51.022;6.764;2023-04-03T14:24:52;13.60;70.40
2435;DHT22;1228;51.022;6.764;2023-04-03T14:27:25;13.50;70.80
2435;DHT22;1228;51.022;6.764;2023-04-03T14:29:52;13.50;71.50
2435;DHT22;1228;51.022;6.764;2023-04-03T14:32:20;13.40;72.30
2435;DHT22;1228;51.022;6.764;2023-04-03T14:34:47;13.50;71.10
2435;DHT22;1228;51.022;6.764;2023-04-03T14:37:16;13.40;75.60
2435;DHT22;1228;51.022;6.764;2023-04-03T14:39:42;13.60;76.00
2435;DHT22;1228;51.022;6.764;2023-04-03T14:42:18;13.50;72.80
2435;DHT22;1228;51.022;6.764;2023-04-03T14:44:44;13.50;76.10
2435;DHT22;1228;51.022;6.764;2023-04-03T14:47:24;13.70;79.20
2435;DHT22;1228;51.022;6.764;2023-04-03T14:49:50;13.40;72.40
2435;DHT22;1228;51.022;6.764;2023-04-03T14:52:20;12.90;72.20
2435;DHT22;1228;51.022;6.764;2023-04-03T14:54:47;12.80;72.00
2435;DHT22;1228;51.022;6.764;2023-04-03T14:57:14;12.70;75.00
2435;DHT22;1228;51.022;6.764;2023-04-03T14:59:40;12.50;74.10
2435;DHT22;1228;51.022;6.764;2023-04-03T15:02:30;12.60;74.20
2435;DHT22;1228;51.022;6.764;2023-04-03T15:04:57;12.70;73.80
2435;DHT22;1228;51.022;6.764;2023-04-03T15:07:25;12.70;76.10
2435;DHT22;1228;51.022;6.764;2023-04-03T15:09:51;12.80;71.40
2435;DHT22;1228;51.022;6.764;2023-04-03T15:12:17;13.00;76.10
2435;DHT22;1228;51.022;6.764;2023-04-03T15:14:43;12.90;69.30
2435;DHT22;1228;51.022;6.764;2023-04-03T15:17:15;12.60;70.40
2435;DHT22;1228;51.022;6.764;2023-04-03T15:19:41;12.50;70.30
2435;DHT22;1228;51.022;6.764;2023-04-03T15:22:14;12.40;71.90
2435;DHT22;1228;51.022;6.764;2023-04-03T15:24:41;12.30;68.80
2435;DHT22;1228;51.022;6.764;2023-04-03T15:27:06;12.20;69.50
2435;DHT22;1228;51.022;6.764;2023-04-03T15:29:32;12.10;70.30
2435;DHT22;1228;51.022;6.764;2023-04-03T15:31:57;12.20;69.50
2435;DHT22;1228;51.022;6.764;2023-04-03T15:34:23;12.40;71.30
2435;DHT22;1228;51.022;6.764;2023-04-03T15:36:49;12.70;73.60
2435;DHT22;1228;51.022;6.764;2023-04-03T15:39:17;12.90;71.20
2435;DHT22;1228;51.022;6.764;2023-04-03T15:41:44;13.00;69.80
2435;DHT22;1228;51.022;6.764;2023-04-03T15:44:10;12.90;71.50
2435;DHT22;1228;51.022;6.764;2023-04-03T15:46:37;12.90;74.10
2435;DHT22;1228;51.022;6.764;2023-04-03T15:49:04;12.90;67.90
2435;DHT22;1228;51.022;6.764;2023-04-03T15:51:30;12.80;69.80
2435;DHT22;1228;51.022;6.764;2023-04-03T15:53:55;12.90;71.00
2435;DHT22;1228;51.022;6.764;2023-04-03T15:56:21;13.10;69.40
2435;DHT22;1228;51.022;6.764;2023-04-03T15:58:46;13.20;73.20
2435;DHT22;1228;51.022;6.764;2023-04-03T16:01:12;13.40;72.70
2435;DHT22;1228;51.022;6.764;2023-04-03T16:03:40;13.50;69.50
2435;DHT22;1228;51.022;6.764;2023-04-03T16:06:11;13.70;76.00
2435;DHT22;1228;51.022;6.764;2023-04-03T16:08:37;13.60;73.00
2435;DHT22;1228;51.022;6.764;2023-04-03T16:11:03;13.50;68.70
2435;DHT22;1228;51.022;6.764;2023-04-03T16:13:28;13.50;71.30
2435;DHT22;1228;51.022;6.764;2023-04-03T16:15:54;13.60;73.20
2435;DHT22;1228;51.022;6.764;2023-04-03T16:18:20;13.60;69.10
2435;DHT22;1228;51.022;6.764;2023-04-03T16:20:46;13.60;70.10
2435;DHT22;1228;51.022;6.764;2023-04-03T16:23:12;13.40;72.80
2435;DHT22;1228;51.022;6.764;2023-04-03T16:25:38;13.20;72.10
2435;DHT22;1228;51.022;6.764;2023-04-03T16:28:03;12.80;68.60
2435;DHT22;1228;51.022;6.764;2023-04-03T16:30:29;12.40;70.90
2435;DHT22;1228;51.022;6.764;2023-04-03T16:32:56;12.20;70.60
2435;DHT22;1228;51.022;6.764;2023-04-03T16:35:22;12.20;72.90
2435;DHT22;1228;51.022;6.764;2023-04-03T16:37:47;12.20;71.00
2435;DHT22;1228;51.022;6.764;2023-04-03T16:40:13;12.00;69.10
2435;DHT22;1228;51.022;6.764;2023-04-03T16:42:39;12.00;72.50
2435;DHT22;1228;51.022;6.764;2023-04-03T16:45:06;12.10;72.80
2435;DHT22;1228;51.022;6.764;2023-04-03T16:47:32;12.20;73.10
2435;DHT22;1228;51.022;6.764;2023-04-03T16:49:57;12.00;71.90
2435;DHT22;1228;51.022;6.764;2023-04-03T16:52:23;11.80;70.80
2435;DHT22;1228;51.022;6.764;2023-04-03T16:54:49;11.60;72.70
2435;DHT22;1228;51.022;6.764;2023-04-03T16:57:14;11.50;70.40
2435;DHT22;1228;51.022;6.764;2023-04-03T16:59:40;11.30;72.80
2435;DHT22;1228;51.022;6.764;2023-04-03T17:02:06;11.20;71.80
2435;DHT22;1228;51.022;6.764;2023-04-03T17:04:32;11.10;71.20
2435;DHT22;1228;51.022;6.764;2023-04-03T17:06:57;11.00;75.10
2435;DHT22;1228;51.022;6.764;2023-04-03T17:09:25;10.80;73.10
2435;DHT22;1228;51.022;6.764;2023-04-03T17:11:50;10.70;73.40
2435;DHT22;1228;51.022;6.764;2023-04-03T17:14:16;10.60;74.10
2435;DHT22;1228;51.022;6.764;2023-04-03T17:16:42;10.50;75.10
2435;DHT22;1228;51.022;6.764;2023-04-03T17:19:07;10.50;75.40
2435;DHT22;1228;51.022;6.764;2023-04-03T17:21:33;10.40;77.20
2435;DHT22;1228;51.022;6.764;2023-04-03T17:24:02;10.30;75.80
2435;DHT22;1228;51.022;6.764;2023-04-03T17:26:28;10.10;76.00
2435;DHT22;1228;51.022;6.764;2023-04-03T17:28:54;9.80;78.30
2435;DHT22;1228;51.022;6.764;2023-04-03T17:31:20;9.70;81.80
2435;DHT22;1228;51.022;6.764;2023-04-03T17:33:45;9.30;83.50
2435;DHT22;1228;51.022;6.764;2023-04-03T17:36:11;9.00;87.30
2435;DHT22;1228;51.022;6.764;2023-04-03T17:38:37;8.80;90.40
2435;DHT22;1228;51.022;6.764;2023-04-03T17:41:05;8.60;92.00
2435;DHT22;1228;51.022;6.764;2023-04-03T17:43:31;8.40;91.30
2435;DHT22;1228;51.022;6.764;2023-04-03T17:46:02;8.20;91.90
2435;DHT22;1228;51.022;6.764;2023-04-03T17:48:29;8.10;90.90
2435;DHT22;1228;51.022;6.764;2023-04-03T17:50:55;8.00;91.50
2435;DHT22;1228;51.022;6.764;2023-04-03T17:53:20;7.80;91.20
2435;DHT22;1228;51.022;6.764;2023-04-03T17:55:46;7.70;92.10
2435;DHT22;1228;51.022;6.764;2023-04-03T17:58:11;7.70;94.60
2435;DHT22;1228;51.022;6.764;2023-04-03T18:00:37;7.60;93.40
2435;DHT22;1228;51.022;6.764;2023-04-03T18:03:03;7.50;93.60
2435;DHT22;1228;51.022;6.764;2023-04-03T18:05:29;7.40;94.10
2435;DHT22;1228;51.022;6.764;2023-04-03T18:07:56;7.30;94.90